TFSTR EDWR-EDWG
Flight info
| Callsign | TFSTR |
|---|---|
| Flight time | N/A |
| Altitude | 1500 |
| Route | EDWJ DCT EDWY DCT EDWZ DCT EDWL |
| Aircraft | C172/L-SFG/C |
Departure
| Time | 2026-04-13 15:54 |
|---|---|
| Airport | Borkum Airport (EDWR) |
Arrival
| Time | N/A |
|---|---|
| Airport | Wangerooge Airport (EDWG) |
| Time | Latitude | Longitude | Altitude | Speed | Heading |
|---|---|---|---|---|---|
| 2026-04-13 15:47 | 53.59797 | 6.70267 | 5 ft | 0 kts | 151° |
| 2026-04-13 15:48 | 53.59791 | 6.70273 | 5 ft | 4 kts | 149° |
| 2026-04-13 15:48 | 53.59777 | 6.70282 | 5 ft | 4 kts | 161° |
| 2026-04-13 15:48 | 53.59763 | 6.70293 | 5 ft | 3 kts | 144° |
| 2026-04-13 15:48 | 53.59772 | 6.70299 | 5 ft | 3 kts | 14° |
| 2026-04-13 15:49 | 53.59797 | 6.70314 | 5 ft | 8 kts | 33° |
| 2026-04-13 15:49 | 53.59808 | 6.70346 | 5 ft | 6 kts | 70° |
| 2026-04-13 15:49 | 53.59817 | 6.70385 | 5 ft | 8 kts | 64° |
| 2026-04-13 15:49 | 53.59833 | 6.70439 | 5 ft | 12 kts | 64° |
| 2026-04-13 15:50 | 53.59839 | 6.70519 | 5 ft | 14 kts | 102° |
| 2026-04-13 15:50 | 53.59809 | 6.70601 | 5 ft | 17 kts | 127° |
| 2026-04-13 15:50 | 53.59763 | 6.70691 | 5 ft | 19 kts | 129° |
| 2026-04-13 15:50 | 53.59714 | 6.70784 | 5 ft | 18 kts | 127° |
| 2026-04-13 15:51 | 53.59676 | 6.70871 | 5 ft | 15 kts | 134° |
| 2026-04-13 15:51 | 53.59649 | 6.70935 | 5 ft | 8 kts | 89° |
| 2026-04-13 15:51 | 53.59651 | 6.70951 | 5 ft | 0 kts | 54° |
| 2026-04-13 15:51 | 53.59652 | 6.70952 | 5 ft | 0 kts | 52° |
| 2026-04-13 15:52 | 53.59653 | 6.70955 | 5 ft | 2 kts | 44° |
| 2026-04-13 15:52 | 53.59669 | 6.70974 | 5 ft | 7 kts | 35° |
| 2026-04-13 15:52 | 53.59699 | 6.71011 | 5 ft | 9 kts | 52° |
| 2026-04-13 15:52 | 53.59701 | 6.71035 | 5 ft | 3 kts | 133° |
| 2026-04-13 15:53 | 53.59662 | 6.71116 | 5 ft | 31 kts | 130° |
| 2026-04-13 15:53 | 53.59531 | 6.71383 | 5 ft | 62 kts | 130° |
| 2026-04-13 15:53 | 53.59295 | 6.71807 | 116 ft | 67 kts | 131° |
| 2026-04-13 15:53 | 53.58891 | 6.72364 | 306 ft | 69 kts | 139° |
| 2026-04-13 15:54 | 53.58463 | 6.72840 | 431 ft | 81 kts | 156° |
| 2026-04-13 15:54 | 53.57915 | 6.72858 | 653 ft | 80 kts | 200° |
| 2026-04-13 15:54 | 53.57499 | 6.72310 | 874 ft | 76 kts | 242° |
| 2026-04-13 15:54 | 53.57388 | 6.71814 | 1010 ft | 71 kts | 270° |
| 2026-04-13 15:55 | 53.57422 | 6.71340 | 1145 ft | 65 kts | 298° |
| 2026-04-13 15:55 | 53.57655 | 6.70892 | 1332 ft | 60 kts | 336° |
| 2026-04-13 15:55 | 53.58049 | 6.70751 | 1478 ft | 67 kts | 353° |
| 2026-04-13 15:55 | 53.58462 | 6.70721 | 1503 ft | 86 kts | 357° |
| 2026-04-13 15:56 | 53.58812 | 6.70711 | 1502 ft | 97 kts | 0° |
| 2026-04-13 15:56 | 53.59293 | 6.71006 | 1496 ft | 112 kts | 32° |
| 2026-04-13 15:56 | 53.59646 | 6.71601 | 1497 ft | 119 kts | 46° |
| 2026-04-13 15:56 | 53.60151 | 6.72685 | 1495 ft | 124 kts | 49° |
| 2026-04-13 15:57 | 53.60675 | 6.73852 | 1493 ft | 126 kts | 49° |
| 2026-04-13 15:57 | 53.61189 | 6.75017 | 1490 ft | 118 kts | 50° |
| 2026-04-13 15:57 | 53.61642 | 6.76026 | 1490 ft | 109 kts | 50° |
| 2026-04-13 15:57 | 53.62036 | 6.77083 | 1491 ft | 105 kts | 62° |
| 2026-04-13 15:58 | 53.62283 | 6.78232 | 1490 ft | 102 kts | 68° |
| 2026-04-13 15:58 | 53.62489 | 6.79368 | 1491 ft | 101 kts | 69° |
| 2026-04-13 15:58 | 53.62687 | 6.80484 | 1492 ft | 99 kts | 69° |
| 2026-04-13 15:58 | 53.62885 | 6.81601 | 1492 ft | 98 kts | 69° |
| 2026-04-13 15:59 | 53.63083 | 6.82709 | 1492 ft | 98 kts | 69° |
| 2026-04-13 15:59 | 53.63282 | 6.83799 | 1493 ft | 97 kts | 69° |
| 2026-04-13 15:59 | 53.63488 | 6.84884 | 1492 ft | 96 kts | 69° |
| 2026-04-13 15:59 | 53.63689 | 6.85970 | 1492 ft | 96 kts | 69° |
| 2026-04-13 16:00 | 53.63880 | 6.87038 | 1493 ft | 96 kts | 69° |
| 2026-04-13 16:00 | 53.64082 | 6.88124 | 1493 ft | 96 kts | 69° |
| 2026-04-13 16:00 | 53.64284 | 6.89198 | 1492 ft | 95 kts | 69° |
| 2026-04-13 16:00 | 53.64487 | 6.90264 | 1492 ft | 95 kts | 69° |
| 2026-04-13 16:01 | 53.64697 | 6.91327 | 1491 ft | 95 kts | 64° |
| 2026-04-13 16:01 | 53.65166 | 6.92029 | 1491 ft | 93 kts | 18° |
| 2026-04-13 16:01 | 53.65815 | 6.92046 | 1493 ft | 94 kts | 356° |
| 2026-04-13 16:01 | 53.66462 | 6.91882 | 1493 ft | 94 kts | 354° |
| 2026-04-13 16:02 | 53.67048 | 6.92120 | 1490 ft | 92 kts | 37° |
| 2026-04-13 16:02 | 53.67363 | 6.93042 | 1492 ft | 94 kts | 75° |
| 2026-04-13 16:02 | 53.67445 | 6.94160 | 1493 ft | 95 kts | 82° |
| 2026-04-13 16:02 | 53.67490 | 6.95099 | 1493 ft | 95 kts | 82° |
| 2026-04-13 16:03 | 53.67541 | 6.96217 | 1493 ft | 95 kts | 82° |
| 2026-04-13 16:03 | 53.67593 | 6.97348 | 1493 ft | 95 kts | 82° |
| 2026-04-13 16:03 | 53.67643 | 6.98465 | 1463 ft | 96 kts | 83° |
| 2026-04-13 16:03 | 53.67699 | 6.99747 | 858 ft | 114 kts | 83° |
| 2026-04-13 16:04 | 53.67748 | 7.00957 | 660 ft | 100 kts | 84° |
| 2026-04-13 16:04 | 53.67841 | 7.02069 | 365 ft | 98 kts | 66° |
| 2026-04-13 16:04 | 53.68138 | 7.03016 | 108 ft | 83 kts | 71° |
| 2026-04-13 16:04 | 53.68182 | 7.03429 | 74 ft | 64 kts | 83° |
| 2026-04-13 16:05 | 53.68240 | 7.04200 | 32 ft | 57 kts | 76° |